Time;durP1;ratioP1;P1;durP2;ratioP2;P2;SDS_P1;SDS_P2;PMS_P1;PMS_P2;Temp;Humidity;BMP_temperature;BMP_pressure;BME280_temperature;BME280_humidity;BME280_pressure;Samples;Min_cycle;Max_cycle;Signal;HPM_P1;HPM_P2
2022/06/04 00:00:08;;;;;;;3.30;3.00;;;;;;;13.88;69.69;101702.50;5081354;28;20503;-79
2022/06/04 00:02:41;;;;;;;3.15;2.80;;;;;;;13.85;69.29;101710.41;5081564;28;20189;-79
2022/06/04 00:05:09;;;;;;;3.13;2.72;;;;;;;13.83;69.96;101709.56;5081724;28;20534;-79
2022/06/04 00:07:34;;;;;;;3.40;3.10;;;;;;;13.80;70.53;101713.09;5081356;28;20027;-79
2022/06/04 00:15:32;;;;;;;5.22;3.05;;;;;;;13.84;71.26;101713.94;5101737;28;20114;-79
2022/06/04 00:17:59;;;;;;;3.53;3.17;;;;;;;13.78;69.39;101714.00;5082208;28;20412;-80
2022/06/04 00:20:25;;;;;;;3.63;3.28;;;;;;;13.74;70.18;101712.31;5082259;28;20015;-80
2022/06/04 00:22:50;;;;;;;3.95;3.13;;;;;;;13.74;71.59;101709.69;5082234;28;20026;-79
2022/06/04 00:25:16;;;;;;;3.55;3.35;;;;;;;13.73;72.19;101710.56;5081825;28;20026;-80
2022/06/04 00:27:42;;;;;;;3.95;3.70;;;;;;;13.69;71.01;101710.63;5081185;28;20019;-80
2022/06/04 00:30:08;;;;;;;3.65;3.35;;;;;;;13.68;72.29;101706.25;5083472;28;20024;-79
2022/06/04 00:32:37;;;;;;;5.18;3.15;;;;;;;13.66;71.15;101708.03;5082227;28;20047;-80
2022/06/04 00:35:04;;;;;;;3.75;3.45;;;;;;;13.63;71.98;101715.09;5083068;28;20027;-80
2022/06/04 00:37:34;;;;;;;3.28;3.08;;;;;;;13.64;73.59;101708.94;5080923;28;20027;-80
2022/06/04 00:40:00;;;;;;;4.18;3.88;;;;;;;13.60;72.13;101715.13;5098026;28;20024;-80
2022/06/04 00:42:26;;;;;;;4.13;3.83;;;;;;;13.58;72.35;101712.53;5081179;28;20034;-80
2022/06/04 00:45:21;;;;;;;4.38;4.07;;;;;;;13.58;73.62;101701.13;5081055;28;20023;-79
2022/06/04 00:47:50;;;;;;;6.75;3.75;;;;;;;13.59;74.02;101705.50;5097177;28;20024;-79
2022/06/04 00:50:19;;;;;;;3.90;3.60;;;;;;;13.56;72.53;101709.03;5080677;28;20031;-80
2022/06/04 00:52:46;;;;;;;6.45;3.80;;;;;;;13.53;72.90;101714.34;5081000;28;20108;-79
2022/06/04 00:55:12;;;;;;;4.85;4.13;;;;;;;13.53;72.73;101714.34;5097381;28;20077;-80
2022/06/04 00:57:46;;;;;;;5.47;4.13;;;;;;;13.49;71.94;101717.88;5081011;28;20419;-79
2022/06/04 01:00:29;;;;;;;4.13;3.70;;;;;;;13.43;72.38;101708.34;5097507;28;20038;-79
2022/06/04 01:03:09;;;;;;;4.15;3.85;;;;;;;13.40;72.97;101704.88;5097822;28;20041;-80
2022/06/04 01:06:05;;;;;;;6.00;4.28;;;;;;;13.37;72.36;101699.66;5097402;28;20028;-79
2022/06/04 01:08:33;;;;;;;;;;;;;;;13.32;72.44;101711.03;5081323;28;20477;-79
2022/06/04 01:11:23;;;;;;;4.95;4.38;;;;;;;13.30;72.98;101707.56;5083178;22;19921;-82
2022/06/04 01:14:04;;;;;;;5.05;4.63;;;;;;;13.28;73.36;101711.06;5055981;28;20021;-82
2022/06/04 01:16:48;;;;;;;4.43;4.13;;;;;;;13.25;74.04;101714.63;5055749;28;20035;-82
2022/06/04 01:19:41;;;;;;;5.32;5.03;;;;;;;13.25;74.24;101706.75;5036004;28;20429;-82
2022/06/04 01:22:35;;;;;;;5.90;4.68;;;;;;;13.26;74.61;101705.84;5035815;28;20052;-81
2022/06/04 01:25:19;;;;;;;5.63;5.07;;;;;;;13.24;73.65;101707.66;5053874;28;20047;-82
2022/06/04 01:27:54;;;;;;;5.22;4.82;;;;;;;13.24;74.00;101707.66;5035600;28;20061;-82
2022/06/04 01:30:20;;;;;;;;;;;;;;;13.22;74.83;101708.53;5019538;28;20024;-82
2022/06/04 01:32:55;;;;;;;6.18;5.00;;;;;;;13.16;74.23;101706.88;5036117;28;19916;-82
2022/06/04 01:35:25;;;;;;;;;;;;;;;13.17;75.58;101696.34;5019877;28;20025;-82
2022/06/04 01:38:03;;;;;;;5.90;5.07;;;;;;;13.18;75.28;101707.69;5035310;28;20180;-82
2022/06/04 01:43:24;;;;;;;5.47;5.07;;;;;;;13.13;75.35;101704.25;5038277;28;20028;-82
2022/06/04 01:45:51;;;;;;;5.60;5.22;;;;;;;13.09;75.25;101698.19;5019098;28;20033;-82
2022/06/04 01:48:18;;;;;;;5.82;5.25;;;;;;;13.06;74.80;101708.72;5018921;28;20094;-82
2022/06/04 01:50:48;;;;;;;5.82;4.97;;;;;;;13.02;75.08;101702.63;5019078;28;20033;-82
2022/06/04 01:53:14;;;;;;;5.53;5.03;;;;;;;13.02;76.20;101702.63;5019041;28;20521;-82
2022/06/04 01:55:47;;;;;;;5.65;5.10;;;;;;;13.02;75.87;101707.88;5035489;28;20135;-82
2022/06/04 01:58:24;;;;;;;6.10;5.40;;;;;;;13.02;75.82;101707.00;5035398;28;20284;-82
2022/06/04 02:00:59;;;;;;;7.78;5.65;;;;;;;13.02;75.34;101702.63;5035244;28;20033;-82
2022/06/04 02:03:30;;;;;;;;;;;;;;;13.04;75.35;101704.38;5035813;28;20151;-82
2022/06/04 02:06:08;;;;;;;6.05;5.45;;;;;;;13.01;76.29;101695.63;5051833;28;19909;-82
2022/06/04 02:08:44;;;;;;;6.10;5.70;;;;;;;13.00;76.29;101683.41;5018602;28;20032;-82
2022/06/04 02:11:19;;;;;;;6.35;5.78;;;;;;;12.98;75.57;101690.44;5018630;28;20028;-82
2022/06/04 02:13:46;;;;;;;;;;;;;;;12.92;75.35;101694.88;5020159;28;20086;-82
2022/06/04 02:16:21;;;;;;;6.43;5.90;;;;;;;12.91;75.46;101701.88;5035803;28;19909;-82
2022/06/04 02:18:47;;;;;;;;;;;;;;;12.87;75.58;101697.53;5036300;28;20124;-82
2022/06/04 02:21:12;;;;;;;5.93;5.43;;;;;;;12.87;75.88;101686.16;5019987;28;20035;-82
2022/06/04 02:23:38;;;;;;;6.35;5.72;;;;;;;12.84;76.07;101687.94;5022295;28;20115;-82
2022/06/04 02:26:04;;;;;;;6.47;5.70;;;;;;;12.82;75.83;101691.47;5019897;28;20398;-82
2022/06/04 02:28:29;;;;;;;6.85;6.32;;;;;;;12.78;75.94;101689.75;5020824;28;20385;-82
2022/06/04 02:31:17;;;;;;;7.72;6.38;;;;;;;12.68;75.47;101689.84;5036335;28;20040;-82
2022/06/04 02:33:57;;;;;;;7.65;6.25;;;;;;;12.65;75.39;101692.50;5035565;28;20029;-82
2022/06/04 02:36:28;;;;;;;7.88;7.10;;;;;;;12.62;75.37;101697.75;5034728;28;20404;-82
2022/06/04 02:38:53;;;;;;;7.47;6.97;;;;;;;12.58;76.38;101696.03;5035692;28;20111;-82
2022/06/04 02:41:31;;;;;;;7.38;6.63;;;;;;;12.55;76.73;101693.44;5035522;28;20427;-82
2022/06/04 02:44:01;;;;;;;7.47;6.53;;;;;;;12.56;78.04;101696.97;5019631;28;20029;-82
2022/06/04 02:46:34;;;;;;;7.85;7.15;;;;;;;12.55;77.63;101698.69;5035741;28;20021;-82
2022/06/04 02:49:23;;;;;;;7.78;7.00;;;;;;;12.54;77.31;101693.47;5019073;28;20021;-82
2022/06/04 02:51:51;;;;;;;8.23;5.95;;;;;;;12.55;78.06;101701.31;5024363;28;20059;-82
2022/06/04 02:54:22;;;;;;;6.95;6.40;;;;;;;12.55;77.66;101695.22;5024389;28;20025;-82
2022/06/04 02:56:48;;;;;;;7.38;6.78;;;;;;;12.52;77.77;101690.88;5023301;28;20394;-82
2022/06/04 02:59:16;;;;;;;7.22;6.72;;;;;;;12.51;77.34;101704.84;5024513;28;20078;-82
2022/06/04 03:01:43;;;;;;;8.15;7.45;;;;;;;12.49;77.69;101704.00;5022877;28;20503;-82
2022/06/04 03:04:09;;;;;;;9.45;7.72;;;;;;;12.44;77.54;101703.16;5039639;28;20028;-82
2022/06/04 03:06:35;;;;;;;9.77;7.35;;;;;;;12.44;78.57;101708.41;5022699;28;20468;-82
2022/06/04 03:09:04;;;;;;;7.93;7.32;;;;;;;12.42;78.33;101705.78;5022888;28;20116;-82
2022/06/04 03:11:29;;;;;;;8.07;7.15;;;;;;;12.40;78.04;101722.41;5023631;28;20378;-82
2022/06/04 03:13:55;;;;;;;9.15;7.78;;;;;;;12.33;78.05;101719.81;5022802;28;20032;-82
2022/06/04 03:16:20;;;;;;;10.27;7.75;;;;;;;12.30;78.74;101717.22;5022811;28;20140;-82
2022/06/04 03:18:49;;;;;;;8.98;8.10;;;;;;;12.29;78.28;101725.09;5022957;28;20047;-82
2022/06/04 03:21:14;;;;;;;9.13;8.13;;;;;;;12.26;79.24;101720.75;5023333;28;20027;-82
2022/06/04 03:23:40;;;;;;;11.90;7.95;;;;;;;12.24;78.17;101721.63;5022993;28;20389;-82
2022/06/04 03:26:05;;;;;;;9.32;8.05;;;;;;;12.25;79.16;101734.72;5022530;28;20115;-82
2022/06/04 03:28:31;;;;;;;8.27;7.50;;;;;;;12.25;79.31;101739.97;5039762;28;20029;-82
2022/06/04 03:30:57;;;;;;;9.20;8.30;;;;;;;12.27;78.99;101732.09;5022727;28;20032;-82
2022/06/04 03:33:22;;;;;;;8.77;7.97;;;;;;;12.24;79.02;101730.34;5039427;28;20037;-82
2022/06/04 03:35:48;;;;;;;9.80;8.25;;;;;;;12.25;78.89;101737.34;5022760;28;20060;-82
2022/06/04 03:38:13;;;;;;;8.95;8.13;;;;;;;12.25;78.85;101739.97;5022734;28;20021;-82
2022/06/04 03:40:39;;;;;;;8.98;7.97;;;;;;;12.22;79.41;101734.75;5022493;28;20479;-82
2022/06/04 03:43:05;;;;;;;9.60;8.50;;;;;;;12.24;78.94;101734.72;5022940;28;20028;-82
2022/06/04 03:45:30;;;;;;;9.55;8.55;;;;;;;12.22;78.57;101744.38;5022410;28;20547;-82
2022/06/04 03:47:56;;;;;;;10.10;8.45;;;;;;;12.21;78.72;101753.94;5022137;28;20021;-82
2022/06/04 03:50:25;;;;;;;10.57;8.63;;;;;;;12.22;78.79;101753.09;5022452;28;20033;-82
2022/06/04 03:52:51;;;;;;;12.95;8.48;;;;;;;12.19;79.29;101755.72;5022672;28;20063;-82
2022/06/04 03:55:18;;;;;;;9.20;8.18;;;;;;;12.16;78.97;101760.97;5038616;28;20025;-82
2022/06/04 03:57:48;;;;;;;9.70;8.00;;;;;;;12.15;79.35;101761.88;5038268;28;20073;-82
2022/06/04 04:00:22;;;;;;;10.80;8.45;;;;;;;12.18;79.84;101767.06;5039624;28;20295;-82
2022/06/04 04:02:53;;;;;;;9.27;8.35;;;;;;;12.18;80.18;101765.31;5038728;28;20032;-82
2022/06/04 04:05:21;;;;;;;9.15;8.05;;;;;;;12.19;80.16;101776.69;5021985;28;20055;-82
2022/06/04 04:07:48;;;;;;;8.77;7.88;;;;;;;12.21;79.36;101769.66;5021779;28;20025;-82
2022/06/04 04:10:14;;;;;;;10.05;9.00;;;;;;;12.20;80.18;101767.94;5021865;28;20067;-82
2022/06/04 04:12:39;;;;;;;9.27;8.38;;;;;;;12.15;79.28;101769.72;5021581;28;20025;-82
2022/06/04 04:15:05;;;;;;;10.15;9.18;;;;;;;12.14;79.38;101770.59;5022223;28;20501;-82
2022/06/04 04:17:31;;;;;;;10.13;9.23;;;;;;;12.17;79.79;101765.34;5021139;28;20075;-82
2022/06/04 04:19:57;;;;;;;11.45;8.75;;;;;;;12.16;79.80;101760.97;5021770;28;20496;-82
2022/06/04 04:22:22;;;;;;;11.65;9.48;;;;;;;12.14;79.15;101762.72;5038070;28;20017;-82
2022/06/04 04:24:47;;;;;;;11.27;9.07;;;;;;;12.09;79.62;101757.53;5021311;28;20116;-82
2022/06/04 04:27:14;;;;;;;9.70;8.70;;;;;;;12.09;79.51;101754.91;5021218;28;20021;-82
2022/06/04 04:29:39;;;;;;;9.95;8.95;;;;;;;12.11;80.68;101747.91;5021859;28;20363;-82
2022/06/04 04:32:05;;;;;;;10.38;9.32;;;;;;;12.11;79.64;101753.16;5022115;28;20037;-82
2022/06/04 04:34:31;;;;;;;10.45;9.45;;;;;;;12.08;80.08;101734.84;5021271;28;20027;-82
2022/06/04 04:36:57;;;;;;;10.40;8.65;;;;;;;12.11;80.14;101731.34;5022155;28;20020;-82
2022/06/04 04:39:22;;;;;;;10.55;9.60;;;;;;;12.14;79.74;101731.31;5021774;28;20036;-82
2022/06/04 04:41:48;;;;;;;11.85;10.45;;;;;;;12.14;80.42;101731.31;5022131;28;20032;-82
2022/06/04 04:44:13;;;;;;;11.43;10.23;;;;;;;12.19;80.35;101732.16;5037810;28;20116;-82
2022/06/04 04:46:39;;;;;;;11.25;10.13;;;;;;;12.25;81.20;101726.84;5038383;28;20036;-82
2022/06/04 04:49:04;;;;;;;11.90;10.55;;;;;;;12.30;80.24;101738.19;5038159;28;20479;-82
2022/06/04 04:51:31;;;;;;;19.42;11.05;;;;;;;12.31;80.37;101729.44;5021578;28;20032;-82
2022/06/04 04:53:57;;;;;;;14.15;11.43;;;;;;;12.33;80.09;101732.91;5037941;28;20439;-82
2022/06/04 04:56:24;;;;;;;19.63;12.02;;;;;;;12.38;80.28;101729.38;5037684;28;20017;-82
2022/06/04 04:58:50;;;;;;;13.70;12.00;;;;;;;12.42;80.37;101738.97;5037769;28;20017;-82
2022/06/04 05:01:20;;;;;;;18.95;12.45;;;;;;;12.44;79.51;101740.69;5037370;28;20627;-82
2022/06/04 05:03:45;;;;;;;20.48;13.25;;;;;;;12.41;79.86;101748.59;5037913;28;20616;-82
2022/06/04 05:06:13;;;;;;;14.68;12.05;;;;;;;12.43;79.93;101746.81;5020900;28;20043;-82
2022/06/04 05:08:38;;;;;;;13.77;12.38;;;;;;;12.46;79.97;101740.69;5037552;28;20024;-82
2022/06/04 05:11:27;;;;;;;16.40;12.65;;;;;;;12.49;79.75;101743.31;5036956;28;20072;-82
2022/06/04 05:13:53;;;;;;;16.42;12.70;;;;;;;12.52;79.14;101743.28;5037013;28;20088;-82
2022/06/04 05:16:20;;;;;;;14.45;12.82;;;;;;;12.55;80.04;101748.47;5036937;28;20129;-82
2022/06/04 05:18:46;;;;;;;18.05;13.25;;;;;;;12.57;79.66;101744.13;5036850;28;20402;-82
2022/06/04 05:21:19;;;;;;;19.42;14.18;;;;;;;12.55;79.32;101743.25;5054390;28;20056;-82
2022/06/04 05:23:44;;;;;;;15.35;12.25;;;;;;;12.50;78.99;101739.78;5036712;28;20501;-82
2022/06/04 05:26:10;;;;;;;14.63;12.73;;;;;;;12.50;78.92;101737.16;5036967;28;20029;-82
2022/06/04 05:28:35;;;;;;;16.33;13.02;;;;;;;12.52;80.16;101738.03;5036748;28;20231;-82
2022/06/04 05:31:01;;;;;;;18.52;13.40;;;;;;;12.52;79.22;101738.03;5036690;28;20029;-82
2022/06/04 05:33:26;;;;;;;14.48;12.20;;;;;;;12.53;79.64;101752.88;5037353;28;20029;-82
2022/06/04 05:35:51;;;;;;;16.02;12.48;;;;;;;12.56;79.55;101750.22;5037679;28;20088;-82
2022/06/04 05:38:17;;;;;;;14.40;12.30;;;;;;;12.60;78.33;101738.84;5020387;28;20086;-82
2022/06/04 05:40:42;;;;;;;15.55;11.38;;;;;;;12.58;78.16;101751.06;5036677;28;20033;-82
2022/06/04 05:43:08;;;;;;;14.23;11.07;;;;;;;12.54;78.92;101738.03;5020529;28;20401;-82
2022/06/04 05:45:33;;;;;;;14.13;10.75;;;;;;;12.53;79.13;101750.25;5036798;28;20021;-82
2022/06/04 05:47:59;;;;;;;11.65;10.45;;;;;;;12.54;78.89;101746.72;5036647;28;20448;-82
2022/06/04 05:50:24;;;;;;;11.38;10.30;;;;;;;12.58;79.06;101743.22;5036521;28;20493;-82
2022/06/04 05:52:49;;;;;;;12.32;9.88;;;;;;;12.60;78.78;101751.94;5037226;28;20064;-82
2022/06/04 05:55:15;;;;;;;13.20;10.63;;;;;;;12.62;78.72;101755.41;5020039;28;20028;-82
2022/06/04 05:57:40;;;;;;;11.98;9.45;;;;;;;12.64;78.98;101755.44;5036545;28;20035;-82
2022/06/04 06:00:08;;;;;;;14.68;10.98;;;;;;;12.65;78.68;101755.41;5020499;28;20028;-82
2022/06/04 06:02:37;;;;;;;11.02;9.93;;;;;;;12.65;78.72;101755.41;5036497;28;20112;-82
2022/06/04 06:05:03;;;;;;;12.20;10.93;;;;;;;12.67;78.67;101753.63;5020139;28;20017;-82
2022/06/04 06:07:28;;;;;;;11.85;9.32;;;;;;;12.69;78.94;101756.22;5036354;28;20448;-82
2022/06/04 06:09:54;;;;;;;9.77;8.77;;;;;;;12.72;79.55;101757.97;5020478;28;20124;-82
2022/06/04 06:12:19;;;;;;;10.95;9.85;;;;;;;12.76;79.75;101762.28;5018707;28;20024;-81
2022/06/04 06:14:44;;;;;;;10.77;9.50;;;;;;;12.78;79.35;101768.41;5035070;28;20035;-82
2022/06/04 06:17:10;;;;;;;13.68;9.45;;;;;;;12.79;78.56;101762.28;5034824;28;20059;-82
2022/06/04 06:19:35;;;;;;;13.02;9.98;;;;;;;12.81;76.80;101771.00;5018626;28;20044;-82
2022/06/04 06:22:01;;;;;;;11.85;9.45;;;;;;;12.78;76.71;101765.78;5034794;28;20025;-83
2022/06/04 06:24:26;;;;;;;9.50;8.57;;;;;;;12.78;76.66;101760.56;5034211;28;20027;-82
2022/06/04 06:26:54;;;;;;;12.02;8.63;;;;;;;12.78;76.24;101768.41;5034621;28;20039;-85
2022/06/04 06:29:23;;;;;;;9.98;8.98;;;;;;;12.79;77.81;101768.41;5018263;28;20029;-82
2022/06/04 06:31:49;;;;;;;9.95;8.82;;;;;;;12.84;77.71;101766.63;5020166;28;20025;-82
2022/06/04 06:34:14;;;;;;;10.63;9.30;;;;;;;12.86;77.04;101769.22;5020003;28;20047;-82
2022/06/04 06:36:40;;;;;;;9.82;8.88;;;;;;;12.89;76.56;101768.31;5019985;28;20033;-82
2022/06/04 06:39:05;;;;;;;9.40;8.45;;;;;;;12.92;76.82;101774.38;5019501;28;20017;-82
2022/06/04 06:41:31;;;;;;;10.10;9.20;;;;;;;12.96;77.09;101775.25;5019787;28;20029;-82
2022/06/04 06:43:57;;;;;;;11.93;9.02;;;;;;;12.97;77.21;101772.59;5018368;28;20021;-83
2022/06/04 06:46:35;;;;;;;9.40;8.55;;;;;;;12.99;77.61;101773.47;5018234;28;20049;-83
2022/06/04 06:49:08;;;;;;;10.52;9.45;;;;;;;13.00;75.97;101775.19;5018229;28;20025;-83
2022/06/04 06:51:40;;;;;;;11.25;10.07;;;;;;;12.97;76.04;101783.09;5017937;28;20123;-84
2022/06/04 06:54:05;;;;;;;10.63;9.57;;;;;;;12.96;76.17;101783.97;5034545;28;20437;-83
2022/06/04 06:56:36;;;;;;;11.30;8.48;;;;;;;12.98;77.32;101787.47;5017865;28;20060;-83
2022/06/04 06:59:03;;;;;;;13.88;9.18;;;;;;;13.00;76.52;101788.31;5019023;28;20025;-79
2022/06/04 07:01:29;;;;;;;10.95;8.60;;;;;;;13.05;76.37;101797.88;5036136;28;20044;-79
2022/06/04 07:03:55;;;;;;;10.48;9.43;;;;;;;13.12;76.08;101802.22;5018572;28;20021;-79
2022/06/04 07:06:39;;;;;;;9.55;8.60;;;;;;;13.14;75.78;101796.06;5019306;28;20036;-79
2022/06/04 07:09:07;;;;;;;12.93;9.57;;;;;;;13.23;75.88;101807.38;5034967;28;20113;-79
2022/06/04 07:11:33;;;;;;;14.65;9.77;;;;;;;13.23;75.54;101805.59;5064482;22;20151;-80
2022/06/04 07:13:59;;;;;;;9.95;9.05;;;;;;;13.26;74.43;101809.94;5078785;28;20119;-79
2022/06/04 07:16:24;;;;;;;10.18;8.73;;;;;;;13.29;75.31;101816.03;5079443;28;20051;-79
2022/06/04 07:18:50;;;;;;;12.88;9.50;;;;;;;13.33;75.06;101812.50;5078929;28;20024;-79
2022/06/04 07:21:15;;;;;;;9.52;8.57;;;;;;;13.39;74.75;101811.59;5095919;28;20627;-79
2022/06/04 07:23:41;;;;;;;11.52;8.27;;;;;;;13.46;74.13;101817.66;5078982;28;20097;-79
2022/06/04 07:26:06;;;;;;;9.52;8.60;;;;;;;13.50;74.29;101822.84;5079180;28;20035;-79
2022/06/04 07:28:32;;;;;;;11.00;7.97;;;;;;;13.54;73.60;101815.81;5078650;28;20012;-79
2022/06/04 07:30:58;;;;;;;8.48;7.78;;;;;;;13.58;73.45;101825.41;5079229;28;20023;-79
2022/06/04 07:33:27;;;;;;;9.05;8.25;;;;;;;13.58;73.06;101822.78;5078474;28;20066;-79
2022/06/04 07:35:53;;;;;;;8.57;7.78;;;;;;;13.59;73.20;101827.13;5079292;28;20079;-79
2022/06/04 07:38:19;;;;;;;8.93;8.00;;;;;;;13.60;73.74;101818.38;5082827;28;20026;-79
2022/06/04 07:40:45;;;;;;;11.40;7.82;;;;;;;13.61;73.93;101822.75;5082407;28;20023;-79
2022/06/04 07:43:11;;;;;;;13.00;8.40;;;;;;;13.62;72.58;101824.47;5099012;28;20041;-79
2022/06/04 07:45:37;;;;;;;8.85;8.15;;;;;;;13.61;72.86;101830.63;5081929;28;20547;-79
2022/06/04 07:48:03;;;;;;;13.40;8.05;;;;;;;13.57;73.06;101830.69;5098458;28;20054;-79
2022/06/04 07:50:29;;;;;;;8.70;7.78;;;;;;;13.52;73.16;101834.22;5099380;28;20370;-80
2022/06/04 07:52:57;;;;;;;8.00;7.28;;;;;;;13.50;73.44;101840.38;5082566;28;20072;-79
2022/06/04 07:55:22;;;;;;;8.63;7.82;;;;;;;13.52;74.26;101841.22;5081789;28;20086;-79
2022/06/04 07:57:48;;;;;;;10.07;8.65;;;;;;;13.55;73.03;101843.78;5082161;28;20036;-79
2022/06/04 08:00:14;;;;;;;10.57;7.47;;;;;;;13.60;73.68;101834.13;5082159;28;20507;-80
2022/06/04 08:02:42;;;;;;;9.18;8.25;;;;;;;13.66;73.67;101836.69;5082054;28;20122;-80
2022/06/04 08:05:10;;;;;;;9.10;8.10;;;;;;;13.73;74.54;101837.50;5081919;28;20027;-79
2022/06/04 08:07:37;;;;;;;11.20;8.05;;;;;;;13.79;74.79;101832.16;5099483;28;20533;-79
2022/06/04 08:10:03;;;;;;;8.30;7.47;;;;;;;13.86;74.03;101832.97;5083171;28;20482;-79
2022/06/04 08:12:35;;;;;;;8.45;7.57;;;;;;;13.93;74.51;101829.38;5082951;28;20022;-79
2022/06/04 08:15:03;;;;;;;8.35;7.53;;;;;;;13.98;73.31;101832.81;5100035;28;20032;-79
2022/06/04 08:17:30;;;;;;;8.02;7.25;;;;;;;14.03;72.44;101831.00;5082165;28;20051;-79
2022/06/04 08:19:56;;;;;;;8.10;7.35;;;;;;;14.07;71.89;101833.59;5082061;28;20057;-79
2022/06/04 08:22:21;;;;;;;7.72;7.03;;;;;;;14.12;71.33;101834.41;5082372;28;20028;-79
2022/06/04 08:24:47;;;;;;;10.05;7.72;;;;;;;14.16;72.31;101834.31;5082359;28;20030;-79
2022/06/04 08:27:13;;;;;;;10.85;7.15;;;;;;;14.20;72.62;101832.53;5082961;28;20031;-79
2022/06/04 08:29:38;;;;;;;8.65;7.32;;;;;;;14.25;72.70;101838.63;5084216;28;20465;-79
2022/06/04 08:32:05;;;;;;;8.40;7.57;;;;;;;14.30;73.16;101836.78;5082966;28;20024;-79
2022/06/04 08:34:31;;;;;;;10.07;7.95;;;;;;;14.33;72.69;101831.50;5082229;28;20507;-79
2022/06/04 08:36:57;;;;;;;9.27;7.15;;;;;;;14.36;71.43;101828.81;5081524;28;20024;-79
2022/06/04 08:39:23;;;;;;;7.72;6.65;;;;;;;14.41;71.44;101841.03;5081641;28;20019;-79
2022/06/04 08:42:01;;;;;;;6.68;5.97;;;;;;;14.43;71.64;101828.75;5081598;28;20081;-79
2022/06/04 08:44:29;;;;;;;7.68;6.47;;;;;;;14.48;71.20;101843.56;5116976;28;20027;-79
2022/06/04 08:47:05;;;;;;;8.77;6.80;;;;;;;14.53;70.65;101843.47;5081237;28;20023;-82
2022/06/04 08:49:47;;;;;;;7.60;6.85;;;;;;;14.56;71.97;101839.94;5080117;28;20485;-82
2022/06/04 08:52:20;;;;;;;7.45;6.85;;;;;;;14.58;71.19;101836.41;5097014;28;20115;-82
2022/06/04 08:57:41;;;;;;;6.53;5.40;;;;;;;14.64;70.10;101844.25;5099788;28;20560;-82
2022/06/04 09:00:25;;;;;;;6.43;5.63;;;;;;;14.68;70.98;101840.66;5080472;28;20023;-82
2022/06/04 09:03:14;;;;;;;5.68;5.28;;;;;;;14.72;70.08;101840.63;5080008;28;20024;-82
2022/06/04 09:06:11;;;;;;;5.82;5.32;;;;;;;14.77;70.58;101841.41;5096944;28;20395;-82
2022/06/04 09:08:49;;;;;;;6.00;5.60;;;;;;;14.80;69.02;101838.72;5097269;28;20023;-82
2022/06/04 09:11:37;;;;;;;6.15;4.80;;;;;;;14.82;66.04;101834.31;5096662;28;20027;-82
2022/06/04 09:14:15;;;;;;;4.40;4.00;;;;;;;14.85;64.57;101829.00;5088754;28;20084;-82
2022/06/04 09:16:46;;;;;;;5.10;4.68;;;;;;;14.91;66.57;101831.53;5114894;28;20024;-85
2022/06/04 09:19:21;;;;;;;5.13;4.78;;;;;;;14.94;66.10;101831.47;5078352;28;20019;-85
2022/06/04 09:21:47;;;;;;;4.88;4.47;;;;;;;14.99;65.36;101824.38;5078865;28;20020;-85
2022/06/04 09:24:13;;;;;;;6.10;5.60;;;;;;;15.06;65.38;101830.41;5078952;28;20028;-82
2022/06/04 09:26:42;;;;;;;5.50;5.10;;;;;;;15.08;64.74;101818.13;5078847;28;20023;-83
2022/06/04 09:29:48;;;;;;;5.40;5.03;;;;;;;15.14;66.25;101818.00;5078850;28;20026;-82
2022/06/04 09:32:44;;;;;;;6.53;5.25;;;;;;;15.20;65.95;101814.38;5029760;28;20504;-82
2022/06/04 09:35:14;;;;;;;6.25;4.70;;;;;;;15.26;66.32;101823.94;5095589;28;20106;-83
2022/06/04 09:37:49;;;;;;;5.93;5.43;;;;;;;15.31;65.62;101833.50;5078671;28;20404;-83
2022/06/04 09:40:21;;;;;;;;;;;;;;;15.37;67.11;101829.88;5096155;28;20031;-82
2022/06/04 09:42:46;;;;;;;5.20;4.72;;;;;;;15.43;67.42;101828.91;5095308;28;19908;-83
2022/06/04 09:45:27;;;;;;;5.53;5.03;;;;;;;15.48;66.81;101837.59;5078570;28;20114;-82
2022/06/04 09:47:57;;;;;;;5.78;5.22;;;;;;;15.53;65.46;101841.00;5078463;28;20473;-82
2022/06/04 09:50:37;;;;;;;5.65;4.95;;;;;;;15.58;64.29;101847.03;5078292;28;20104;-82
2022/06/04 09:53:11;;;;;;;4.95;4.65;;;;;;;15.61;62.76;101848.75;5078300;28;20055;-82
2022/06/04 09:55:44;;;;;;;5.18;4.80;;;;;;;15.63;62.00;101847.81;5094976;28;20019;-82
2022/06/04 09:58:20;;;;;;;5.55;5.10;;;;;;;15.68;63.68;101845.97;5077873;28;20384;-81
2022/06/04 10:00:56;;;;;;;4.38;3.95;;;;;;;15.70;61.21;101849.44;5078392;28;20035;-84
2022/06/04 10:03:22;;;;;;;5.63;4.65;;;;;;;15.75;61.31;101848.47;5078127;28;20048;-85
2022/06/04 10:06:12;;;;;;;4.00;3.70;;;;;;;15.80;59.22;101841.38;5078353;28;20027;-84
2022/06/04 10:11:31;;;;;;;5.10;4.60;;;;;;;15.91;63.24;101847.34;5098180;28;20400;-83
2022/06/04 10:13:58;;;;;;;4.90;4.50;;;;;;;15.94;61.61;101847.25;5078049;28;20126;-82
2022/06/04 10:16:27;;;;;;;3.85;3.53;;;;;;;15.98;60.08;101841.03;5078429;28;20023;-81
2022/06/04 10:18:59;;;;;;;4.47;4.20;;;;;;;16.02;59.37;101845.34;5078398;28;20046;-81
2022/06/04 10:21:35;;;;;;;3.95;3.60;;;;;;;16.04;59.64;101832.97;5094842;28;20023;-83
2022/06/04 10:24:03;;;;;;;4.10;3.80;;;;;;;16.10;58.30;101836.38;5078040;28;20024;-83
2022/06/04 10:26:41;;;;;;;3.63;3.40;;;;;;;16.13;59.13;101841.59;5077411;28;20545;-83
2022/06/04 10:29:26;;;;;;;3.50;3.33;;;;;;;16.22;60.17;101836.13;5094593;28;20028;-83
2022/06/04 10:31:54;;;;;;;3.78;3.58;;;;;;;16.30;60.94;101838.59;5093457;28;20035;-83
2022/06/04 10:34:45;;;;;;;4.15;3.75;;;;;;;16.35;61.72;101840.22;5094509;28;20027;-83
2022/06/04 10:37:43;;;;;;;5.30;4.05;;;;;;;16.41;60.54;101833.09;5094369;28;20019;-82
2022/06/04 10:40:20;;;;;;;3.70;3.50;;;;;;;16.46;58.77;101836.50;5089870;28;20043;-84
2022/06/04 10:43:04;;;;;;;5.53;4.13;;;;;;;16.52;57.55;101836.34;5094729;28;20028;-83
2022/06/04 10:45:37;;;;;;;4.07;3.28;;;;;;;16.55;57.39;101834.50;5094506;28;20031;-84
2022/06/04 10:48:11;;;;;;;3.83;3.53;;;;;;;16.56;55.45;101832.72;5077328;28;20026;-84
2022/06/04 10:53:41;;;;;;;4.22;3.83;;;;;;;16.65;57.60;101829.88;5097291;28;20027;-83
2022/06/04 10:56:11;;;;;;;4.07;3.60;;;;;;;16.70;57.05;101833.28;5094445;28;20031;-83
2022/06/04 10:58:44;;;;;;;3.95;3.55;;;;;;;16.79;58.46;101836.59;5094368;28;20020;-83
2022/06/04 11:01:13;;;;;;;3.80;3.53;;;;;;;16.87;57.16;101829.38;5077956;28;20023;-83
2022/06/04 11:03:45;;;;;;;4.22;3.83;;;;;;;16.92;55.43;101840.72;5112772;28;20024;-83
2022/06/04 11:06:14;;;;;;;4.00;3.65;;;;;;;16.94;54.23;101833.63;5075161;28;20039;-83
2022/06/04 11:08:51;;;;;;;3.80;3.53;;;;;;;16.97;54.01;101830.91;5073901;28;20375;-83
2022/06/04 11:12:01;;;;;;;6.38;4.10;;;;;;;17.02;55.34;101842.22;5058969;28;20040;-84
2022/06/04 11:14:49;;;;;;;3.97;3.65;;;;;;;17.11;56.30;101837.59;5013959;28;20052;-84
2022/06/04 11:17:19;;;;;;;3.83;3.63;;;;;;;17.20;56.60;101834.72;5057647;28;20441;-83
2022/06/04 11:19:56;;;;;;;4.40;4.07;;;;;;;17.31;57.26;101830.03;5061213;28;20381;-83
2022/06/04 11:22:33;;;;;;;4.53;4.13;;;;;;;17.43;59.65;101835.91;5077680;28;20030;-84
2022/06/04 11:25:04;;;;;;;4.28;3.97;;;;;;;17.56;58.90;101839.94;5061215;28;20439;-83
2022/06/04 11:27:36;;;;;;;4.40;4.10;;;;;;;17.62;57.49;101850.34;5060801;28;20028;-83
2022/06/04 11:30:05;;;;;;;4.25;3.85;;;;;;;17.68;54.83;101834.34;5079065;28;20016;-81
2022/06/04 11:32:52;;;;;;;3.58;3.38;;;;;;;17.76;52.91;101825.31;5061921;28;20529;-81
2022/06/04 11:35:20;;;;;;;4.03;3.63;;;;;;;17.82;52.23;101826.00;5061788;28;20471;-81
2022/06/04 11:38:03;;;;;;;6.07;3.60;;;;;;;17.90;55.25;101817.84;5078607;28;20067;-81
2022/06/04 11:40:40;;;;;;;4.30;3.80;;;;;;;17.95;54.39;101821.25;5061724;28;20024;-81
2022/06/04 11:43:33;;;;;;;3.40;3.20;;;;;;;18.03;55.43;101816.59;5062216;28;20028;-81
2022/06/04 11:46:08;;;;;;;3.83;3.53;;;;;;;18.11;52.79;101811.09;5082385;28;20477;-81
2022/06/04 11:48:40;;;;;;;3.10;2.90;;;;;;;18.22;51.29;101814.28;5098713;28;20030;-81
2022/06/04 11:51:19;;;;;;;3.50;3.20;;;;;;;18.32;52.52;101811.34;5081749;28;20035;-81
2022/06/04 11:53:50;;;;;;;3.17;2.78;;;;;;;18.42;51.73;101813.66;5098333;28;20551;-80
2022/06/04 11:56:21;;;;;;;3.05;2.75;;;;;;;18.55;52.47;101810.63;5081645;28;20055;-80